CheckWX is a tool to help pilots better visualize weather data.  It is not intended as a substitute for an official pre-flight weather briefing.

05:18:42 UTC

ENSB METAR
Svalbard , Longyear Airport
Longyearbyen, Norway
Current

1 hour ago

ENSB 200350Z 30009KT 9999 BKN020 M17/M19 Q1006 RMK WIND 1400FT 28007KT
Observed
Feb-20 @ 03:50 UTC
Wind
  • 300° at 9 KTS
Visibility
10,000+ meters
Flight Rules
MVFR
Cloud Levels
  • Broken at 2,000' AGL
Temperature
-17°C / 1°F
Dewpoint
-19°C / -2°F
Humidity
85%
Altimeter
29.7" Hg
Pressure
1005.92 hPa
Previous

2 hours ago

ENSB 200250Z 29012KT 9999 BKN017 M16/M20 Q1006 RMK WIND 1400FT 28011KT
Observed
Feb-20 @ 02:50 UTC
Wind
  • 290° at 12 KTS
Visibility
10,000+ meters
Flight Rules
MVFR
Cloud Levels
  • Broken at 1,700' AGL
Temperature
-16°C / 3°F
Dewpoint
-20°C / -4°F
Humidity
72%
Altimeter
29.7" Hg
Pressure
1005.92 hPa
Previous

3 hours ago

ENSB 200150Z 08004KT 040V110 8000 -SN BKN017 M17/M21 Q1005 RMK WIND 1400FT 23009KT
Observed
Feb-20 @ 01:50 UTC
Wind
  • 080° at 4 KTS
Visibility
7,998 meters
Flight Rules
MVFR
Conditions
Light Snow
Cloud Levels
  • Broken at 1,700' AGL
Temperature
-17°C / 1°F
Dewpoint
-21°C / -6°F
Humidity
71%
Altimeter
29.68" Hg
Pressure
1004.92 hPa